sensor_id;sensor_type;location;lat;lon;timestamp;pressure;altitude;pressure_sealevel;temperature;humidity
28701;BME280;15877;52.344;16.790;2023-02-03T00:00:27;101310.63;;;3.67;68.11
28701;BME280;15877;52.344;16.790;2023-02-03T00:03:22;101311.26;;;3.62;68.28
28701;BME280;15877;52.344;16.790;2023-02-03T00:05:55;101310.77;;;3.64;68.26
28701;BME280;15877;52.344;16.790;2023-02-03T00:08:28;101309.56;;;3.68;68.33
28701;BME280;15877;52.344;16.790;2023-02-03T00:11:00;101303.37;;;3.70;68.26
28701;BME280;15877;52.344;16.790;2023-02-03T00:13:34;101300.54;;;3.69;68.25
28701;BME280;15877;52.344;16.790;2023-02-03T00:16:08;101293.08;;;3.76;68.33
28701;BME280;15877;52.344;16.790;2023-02-03T00:18:40;101289.56;;;3.65;68.43
28701;BME280;15877;52.344;16.790;2023-02-03T00:21:13;101287.83;;;3.67;68.40
28701;BME280;15877;52.344;16.790;2023-02-03T00:23:46;101286.27;;;3.68;68.42
28701;BME280;15877;52.344;16.790;2023-02-03T00:26:19;101282.20;;;3.75;68.19
28701;BME280;15877;52.344;16.790;2023-02-03T00:28:57;101281.30;;;3.77;67.97
28701;BME280;15877;52.344;16.790;2023-02-03T00:31:30;101278.21;;;3.77;67.93
28701;BME280;15877;52.344;16.790;2023-02-03T00:34:03;101272.77;;;3.80;67.82
28701;BME280;15877;52.344;16.790;2023-02-03T00:36:36;101278.89;;;3.83;67.79
28701;BME280;15877;52.344;16.790;2023-02-03T00:39:08;101272.77;;;3.82;67.88
28701;BME280;15877;52.344;16.790;2023-02-03T00:41:41;101263.48;;;3.84;67.80
28701;BME280;15877;52.344;16.790;2023-02-03T00:44:14;101265.91;;;3.84;67.58
28701;BME280;15877;52.344;16.790;2023-02-03T00:46:47;101228.86;;;3.63;67.62
28701;BME280;15877;52.344;16.790;2023-02-03T00:49:22;101257.69;;;3.79;67.77
28701;BME280;15877;52.344;16.790;2023-02-03T00:51:55;101237.70;;;3.70;67.79
28701;BME280;15877;52.344;16.790;2023-02-03T00:54:27;101243.83;;;3.82;67.63
28701;BME280;15877;52.344;16.790;2023-02-03T00:57:02;101234.50;;;3.81;67.65
28701;BME280;15877;52.344;16.790;2023-02-03T00:59:35;101224.94;;;3.84;67.48
28701;BME280;15877;52.344;16.790;2023-02-03T01:02:08;101201.84;;;3.75;67.45
28701;BME280;15877;52.344;16.790;2023-02-03T01:04:40;101210.77;;;3.84;67.41
28701;BME280;15877;52.344;16.790;2023-02-03T01:07:13;101204.81;;;3.82;67.48
28701;BME280;15877;52.344;16.790;2023-02-03T01:09:46;101203.73;;;3.81;67.55
28701;BME280;15877;52.344;16.790;2023-02-03T01:12:18;101196.65;;;3.80;67.68
28701;BME280;15877;52.344;16.790;2023-02-03T01:14:51;101184.96;;;3.79;67.66
28701;BME280;15877;52.344;16.790;2023-02-03T01:17:24;101160.95;;;3.69;67.64
28701;BME280;15877;52.344;16.790;2023-02-03T01:19:56;101167.83;;;3.75;67.74
28701;BME280;15877;52.344;16.790;2023-02-03T01:22:31;101157.29;;;3.73;67.86
28701;BME280;15877;52.344;16.790;2023-02-03T01:25:04;101152.72;;;3.74;67.99
28701;BME280;15877;52.344;16.790;2023-02-03T01:27:37;101131.32;;;3.63;67.93
28701;BME280;15877;52.344;16.790;2023-02-03T01:30:11;101143.61;;;3.73;67.96
28701;BME280;15877;52.344;16.790;2023-02-03T01:32:44;101145.19;;;3.74;67.89
28701;BME280;15877;52.344;16.790;2023-02-03T01:35:17;101143.61;;;3.74;67.91
28701;BME280;15877;52.344;16.790;2023-02-03T01:37:49;101131.77;;;3.71;68.16
28701;BME280;15877;52.344;16.790;2023-02-03T01:40:22;101135.69;;;3.61;68.30
28701;BME280;15877;52.344;16.790;2023-02-03T01:42:55;101138.18;;;3.64;68.50
28701;BME280;15877;52.344;16.790;2023-02-03T01:45:28;101141.92;;;3.69;68.29
28701;BME280;15877;52.344;16.790;2023-02-03T01:48:00;101143.36;;;3.75;68.28
28701;BME280;15877;52.344;16.790;2023-02-03T01:50:35;101152.39;;;3.75;68.16
28701;BME280;15877;52.344;16.790;2023-02-03T01:53:11;101163.06;;;3.77;68.23
28701;BME280;15877;52.344;16.790;2023-02-03T01:55:47;101168.08;;;3.73;68.28
28701;BME280;15877;52.344;16.790;2023-02-03T01:58:22;101144.23;;;3.60;68.34
28701;BME280;15877;52.344;16.790;2023-02-03T02:00:57;101149.67;;;3.69;68.55
28701;BME280;15877;52.344;16.790;2023-02-03T02:03:33;101141.22;;;3.62;68.93
28701;BME280;15877;52.344;16.790;2023-02-03T02:06:09;101135.08;;;3.71;68.60
28701;BME280;15877;52.344;16.790;2023-02-03T02:08:46;101125.73;;;3.68;68.64
28701;BME280;15877;52.344;16.790;2023-02-03T02:11:21;101129.20;;;3.67;68.79
28701;BME280;15877;52.344;16.790;2023-02-03T02:13:56;101131.86;;;3.69;68.89
28701;BME280;15877;52.344;16.790;2023-02-03T02:16:39;101103.45;;;3.57;68.98
28701;BME280;15877;52.344;16.790;2023-02-03T02:19:37;101107.42;;;3.69;68.98
28701;BME280;15877;52.344;16.790;2023-02-03T02:22:22;101100.64;;;3.70;69.04
28701;BME280;15877;52.344;16.790;2023-02-03T02:28:25;101087.41;;;3.73;68.89
28701;BME280;15877;52.344;16.790;2023-02-03T02:34:00;101060.56;;;3.77;68.91
28701;BME280;15877;52.344;16.790;2023-02-03T02:36:42;101043.30;;;3.79;68.72
28701;BME280;15877;52.344;16.790;2023-02-03T02:39:24;101030.99;;;3.79;68.69
28701;BME280;15877;52.344;16.790;2023-02-03T02:42:07;101001.53;;;3.71;68.68
28701;BME280;15877;52.344;16.790;2023-02-03T02:44:48;101012.72;;;3.83;68.47
28701;BME280;15877;52.344;16.790;2023-02-03T02:47:24;101013.92;;;3.77;68.63
28701;BME280;15877;52.344;16.790;2023-02-03T02:49:59;101011.29;;;3.83;68.38
28701;BME280;15877;52.344;16.790;2023-02-03T02:52:37;101002.70;;;3.76;68.70
28701;BME280;15877;52.344;16.790;2023-02-03T02:55:16;100998.55;;;3.79;68.84
28701;BME280;15877;52.344;16.790;2023-02-03T02:57:57;101003.31;;;3.81;68.79
28701;BME280;15877;52.344;16.790;2023-02-03T03:00:34;101009.16;;;3.78;69.04
28701;BME280;15877;52.344;16.790;2023-02-03T03:03:18;101006.08;;;3.83;68.93
28701;BME280;15877;52.344;16.790;2023-02-03T03:05:54;100987.58;;;3.77;68.84
28701;BME280;15877;52.344;16.790;2023-02-03T03:08:34;101000.56;;;3.86;68.93
28701;BME280;15877;52.344;16.790;2023-02-03T03:11:07;100995.21;;;3.88;68.86
28701;BME280;15877;52.344;16.790;2023-02-03T03:13:43;100970.30;;;3.78;68.79
28701;BME280;15877;52.344;16.790;2023-02-03T03:16:21;100982.73;;;3.88;68.84
28701;BME280;15877;52.344;16.790;2023-02-03T03:18:57;100971.12;;;3.83;68.90
28701;BME280;15877;52.344;16.790;2023-02-03T03:21:44;100962.67;;;3.82;68.82
28701;BME280;15877;52.344;16.790;2023-02-03T03:24:21;100965.71;;;3.81;68.86
28701;BME280;15877;52.344;16.790;2023-02-03T03:26:58;100958.74;;;3.83;68.65
28701;BME280;15877;52.344;16.790;2023-02-03T03:29:37;100957.08;;;3.84;68.67
28701;BME280;15877;52.344;16.790;2023-02-03T03:32:11;100950.33;;;3.89;68.53
28701;BME280;15877;52.344;16.790;2023-02-03T03:34:44;100943.98;;;3.84;68.61
28701;BME280;15877;52.344;16.790;2023-02-03T03:37:22;100947.05;;;3.75;68.84
28701;BME280;15877;52.344;16.790;2023-02-03T03:39:57;100935.88;;;3.81;68.72
28701;BME280;15877;52.344;16.790;2023-02-03T03:42:35;100935.77;;;3.85;68.55
28701;BME280;15877;52.344;16.790;2023-02-03T03:45:15;100934.67;;;3.78;68.70
28701;BME280;15877;52.344;16.790;2023-02-03T03:47:55;100932.59;;;3.80;68.86
28701;BME280;15877;52.344;16.790;2023-02-03T03:51:21;100922.48;;;3.88;68.77
28701;BME280;15877;52.344;16.790;2023-02-03T03:53:56;100911.05;;;3.77;68.96
28701;BME280;15877;52.344;16.790;2023-02-03T03:56:35;100881.59;;;3.67;69.11
28701;BME280;15877;52.344;16.790;2023-02-03T03:59:12;100897.91;;;3.75;69.30
28701;BME280;15877;52.344;16.790;2023-02-03T04:01:46;100892.23;;;3.81;69.24
28701;BME280;15877;52.344;16.790;2023-02-03T04:04:18;100886.20;;;3.85;68.94
28701;BME280;15877;52.344;16.790;2023-02-03T04:06:53;100883.98;;;3.79;69.00
28701;BME280;15877;52.344;16.790;2023-02-03T04:09:27;100876.96;;;3.80;69.16
28701;BME280;15877;52.344;16.790;2023-02-03T04:12:00;100879.39;;;3.78;69.13
28701;BME280;15877;52.344;16.790;2023-02-03T04:14:34;100872.90;;;3.77;69.21
28701;BME280;15877;52.344;16.790;2023-02-03T04:17:09;100849.73;;;3.69;69.26
28701;BME280;15877;52.344;16.790;2023-02-03T04:19:42;100857.92;;;3.83;69.27
28701;BME280;15877;52.344;16.790;2023-02-03T04:22:14;100850.52;;;3.86;69.00
28701;BME280;15877;52.344;16.790;2023-02-03T04:24:47;100846.11;;;3.93;68.81
28701;BME280;15877;52.344;16.790;2023-02-03T04:27:19;100851.99;;;3.92;68.73
28701;BME280;15877;52.344;16.790;2023-02-03T04:29:52;100846.70;;;3.89;68.79
28701;BME280;15877;52.344;16.790;2023-02-03T04:32:25;100841.59;;;4.00;68.55
28701;BME280;15877;52.344;16.790;2023-02-03T04:34:58;100837.08;;;3.98;68.66
28701;BME280;15877;52.344;16.790;2023-02-03T04:37:31;100829.31;;;4.01;68.53
28701;BME280;15877;52.344;16.790;2023-02-03T04:40:05;100805.36;;;3.94;68.49
28701;BME280;15877;52.344;16.790;2023-02-03T04:42:38;100817.29;;;4.03;68.67
28701;BME280;15877;52.344;16.790;2023-02-03T04:45:12;100807.31;;;3.85;69.03
28701;BME280;15877;52.344;16.790;2023-02-03T04:47:44;100803.95;;;3.89;69.30
28701;BME280;15877;52.344;16.790;2023-02-03T04:50:24;100797.60;;;3.94;69.16
28701;BME280;15877;52.344;16.790;2023-02-03T04:52:57;100790.65;;;3.88;69.54
28701;BME280;15877;52.344;16.790;2023-02-03T04:55:30;100775.63;;;3.70;69.62
28701;BME280;15877;52.344;16.790;2023-02-03T04:58:03;100790.41;;;3.82;69.89
28701;BME280;15877;52.344;16.790;2023-02-03T05:00:36;100789.70;;;3.93;69.59
28701;BME280;15877;52.344;16.790;2023-02-03T05:03:09;100782.61;;;3.93;70.11
28701;BME280;15877;52.344;16.790;2023-02-03T05:05:42;100769.26;;;3.89;70.36
28701;BME280;15877;52.344;16.790;2023-02-03T05:08:14;100760.09;;;3.90;70.67
28701;BME280;15877;52.344;16.790;2023-02-03T05:10:47;100754.74;;;3.93;71.03
28701;BME280;15877;52.344;16.790;2023-02-03T05:13:22;100748.15;;;3.95;71.06
28701;BME280;15877;52.344;16.790;2023-02-03T05:15:54;100746.50;;;4.02;71.01
28701;BME280;15877;52.344;16.790;2023-02-03T05:18:27;100740.58;;;3.99;71.57
28701;BME280;15877;52.344;16.790;2023-02-03T05:20:59;100739.68;;;4.01;71.80
28701;BME280;15877;52.344;16.790;2023-02-03T05:23:32;100737.39;;;4.01;72.07
28701;BME280;15877;52.344;16.790;2023-02-03T05:26:05;100732.19;;;3.96;72.53
28701;BME280;15877;52.344;16.790;2023-02-03T05:28:38;100722.67;;;4.06;72.38
28701;BME280;15877;52.344;16.790;2023-02-03T05:31:10;100711.98;;;4.12;72.41
28701;BME280;15877;52.344;16.790;2023-02-03T05:33:43;100702.56;;;4.06;72.75
28701;BME280;15877;52.344;16.790;2023-02-03T05:36:15;100694.47;;;4.00;73.20
28701;BME280;15877;52.344;16.790;2023-02-03T05:38:48;100691.80;;;4.06;73.00
28701;BME280;15877;52.344;16.790;2023-02-03T05:41:21;100684.10;;;4.02;73.48
28701;BME280;15877;52.344;16.790;2023-02-03T05:44:11;100663.83;;;3.97;73.58
28701;BME280;15877;52.344;16.790;2023-02-03T05:46:44;100677.58;;;4.07;73.63
28701;BME280;15877;52.344;16.790;2023-02-03T05:49:17;100673.33;;;4.12;73.69
28701;BME280;15877;52.344;16.790;2023-02-03T05:51:52;100665.82;;;4.00;74.23
28701;BME280;15877;52.344;16.790;2023-02-03T05:54:33;100664.64;;;4.02;74.48
28701;BME280;15877;52.344;16.790;2023-02-03T05:57:05;100654.36;;;4.04;74.53
28701;BME280;15877;52.344;16.790;2023-02-03T05:59:38;100649.98;;;4.09;74.44
28701;BME280;15877;52.344;16.790;2023-02-03T06:02:11;100650.18;;;4.15;74.18
28701;BME280;15877;52.344;16.790;2023-02-03T06:04:44;100653.90;;;4.13;74.44
28701;BME280;15877;52.344;16.790;2023-02-03T06:07:17;100651.31;;;4.16;74.65
28701;BME280;15877;52.344;16.790;2023-02-03T06:09:49;100648.84;;;4.12;75.00
28701;BME280;15877;52.344;16.790;2023-02-03T06:12:25;100644.09;;;4.15;75.06
28701;BME280;15877;52.344;16.790;2023-02-03T06:15:01;100642.36;;;3.98;75.87
28701;BME280;15877;52.344;16.790;2023-02-03T06:17:36;100634.06;;;4.12;75.55
28701;BME280;15877;52.344;16.790;2023-02-03T06:20:13;100624.98;;;4.16;75.46
28701;BME280;15877;52.344;16.790;2023-02-03T06:22:46;100616.14;;;4.21;75.20
28701;BME280;15877;52.344;16.790;2023-02-03T06:25:24;100611.21;;;4.17;75.78
28701;BME280;15877;52.344;16.790;2023-02-03T06:27:57;100598.95;;;4.09;76.18
28701;BME280;15877;52.344;16.790;2023-02-03T06:30:32;100589.55;;;4.13;76.37
28701;BME280;15877;52.344;16.790;2023-02-03T06:33:06;100583.91;;;4.19;76.09
28701;BME280;15877;52.344;16.790;2023-02-03T06:35:41;100577.66;;;4.09;76.86
28701;BME280;15877;52.344;16.790;2023-02-03T06:38:14;100569.50;;;4.17;76.86
28701;BME280;15877;52.344;16.790;2023-02-03T06:40:50;100563.77;;;4.22;76.68
28701;BME280;15877;52.344;16.790;2023-02-03T06:43:24;100558.54;;;4.22;76.80
28701;BME280;15877;52.344;16.790;2023-02-03T06:45:58;100534.87;;;4.04;77.32
28701;BME280;15877;52.344;16.790;2023-02-03T06:48:34;100541.61;;;4.18;77.45
28701;BME280;15877;52.344;16.790;2023-02-03T06:51:07;100530.23;;;4.14;77.77
28701;BME280;15877;52.344;16.790;2023-02-03T06:53:42;100522.55;;;4.21;77.70
28701;BME280;15877;52.344;16.790;2023-02-03T06:56:16;100513.07;;;4.13;78.15
28701;BME280;15877;52.344;16.790;2023-02-03T06:58:51;100501.80;;;4.01;78.74
28701;BME280;15877;52.344;16.790;2023-02-03T07:01:24;100494.30;;;4.20;78.44
28701;BME280;15877;52.344;16.790;2023-02-03T07:03:58;100490.27;;;4.10;78.78
28701;BME280;15877;52.344;16.790;2023-02-03T07:06:30;100481.64;;;4.10;78.98
28701;BME280;15877;52.344;16.790;2023-02-03T07:09:05;100469.86;;;4.05;79.37
28701;BME280;15877;52.344;16.790;2023-02-03T07:11:38;100455.96;;;4.12;79.25
28701;BME280;15877;52.344;16.790;2023-02-03T07:14:10;100449.64;;;4.01;79.86
28701;BME280;15877;52.344;16.790;2023-02-03T07:16:43;100440.46;;;4.08;79.50
28701;BME280;15877;52.344;16.790;2023-02-03T07:19:16;100436.05;;;3.99;79.97
28701;BME280;15877;52.344;16.790;2023-02-03T07:21:49;100424.92;;;4.23;79.13
28701;BME280;15877;52.344;16.790;2023-02-03T07:24:21;100415.13;;;4.27;78.67
28701;BME280;15877;52.344;16.790;2023-02-03T07:26:54;100406.45;;;4.09;79.28
28701;BME280;15877;52.344;16.790;2023-02-03T07:29:27;100393.20;;;4.02;80.06
28701;BME280;15877;52.344;16.790;2023-02-03T07:32:00;100383.95;;;4.20;79.48
28701;BME280;15877;52.344;16.790;2023-02-03T07:34:34;100379.83;;;4.16;79.55
28701;BME280;15877;52.344;16.790;2023-02-03T07:37:06;100375.04;;;3.96;80.09
28701;BME280;15877;52.344;16.790;2023-02-03T07:39:39;100370.52;;;3.94;80.60
28701;BME280;15877;52.344;16.790;2023-02-03T07:42:12;100369.59;;;3.89;80.90
28701;BME280;15877;52.344;16.790;2023-02-03T07:44:45;100361.32;;;4.00;80.62
28701;BME280;15877;52.344;16.790;2023-02-03T07:47:17;100356.04;;;3.93;80.87
28701;BME280;15877;52.344;16.790;2023-02-03T07:49:50;100345.31;;;3.96;80.86
28701;BME280;15877;52.344;16.790;2023-02-03T07:52:22;100338.48;;;3.87;81.30
28701;BME280;15877;52.344;16.790;2023-02-03T07:54:55;100315.48;;;3.76;81.36
28701;BME280;15877;52.344;16.790;2023-02-03T07:57:28;100318.84;;;3.90;81.47
28701;BME280;15877;52.344;16.790;2023-02-03T08:00:01;100305.17;;;3.83;81.46
28701;BME280;15877;52.344;16.790;2023-02-03T08:02:42;100294.67;;;3.90;81.36
28701;BME280;15877;52.344;16.790;2023-02-03T08:05:15;100284.11;;;4.01;80.72
28701;BME280;15877;52.344;16.790;2023-02-03T08:07:48;100276.83;;;3.97;80.76
28701;BME280;15877;52.344;16.790;2023-02-03T08:10:21;100272.20;;;3.95;80.93
28701;BME280;15877;52.344;16.790;2023-02-03T08:12:55;100266.83;;;4.08;80.46
28701;BME280;15877;52.344;16.790;2023-02-03T08:15:27;100255.52;;;3.84;81.16
28701;BME280;15877;52.344;16.790;2023-02-03T08:18:00;100249.15;;;3.89;81.19
28701;BME280;15877;52.344;16.790;2023-02-03T08:20:33;100242.94;;;4.01;80.80
28701;BME280;15877;52.344;16.790;2023-02-03T08:23:06;100240.88;;;3.97;80.89
28701;BME280;15877;52.344;16.790;2023-02-03T08:25:39;100234.51;;;3.95;81.02
28701;BME280;15877;52.344;16.790;2023-02-03T08:28:12;100215.70;;;3.75;81.59
28701;BME280;15877;52.344;16.790;2023-02-03T08:30:44;100207.89;;;3.90;81.56
28701;BME280;15877;52.344;16.790;2023-02-03T08:33:17;100200.02;;;4.07;80.87
28701;BME280;15877;52.344;16.790;2023-02-03T08:35:51;100198.88;;;3.87;81.32
28701;BME280;15877;52.344;16.790;2023-02-03T08:38:23;100187.49;;;4.05;81.02
28701;BME280;15877;52.344;16.790;2023-02-03T08:40:56;100188.38;;;4.00;81.00
28701;BME280;15877;52.344;16.790;2023-02-03T08:43:28;100171.45;;;3.94;81.16
28701;BME280;15877;52.344;16.790;2023-02-03T08:46:04;100151.57;;;3.81;81.76
28701;BME280;15877;52.344;16.790;2023-02-03T08:48:38;100140.09;;;3.68;82.45
28701;BME280;15877;52.344;16.790;2023-02-03T08:51:15;100127.06;;;3.91;82.15
28701;BME280;15877;52.344;16.790;2023-02-03T08:53:48;100114.14;;;3.90;81.60
28701;BME280;15877;52.344;16.790;2023-02-03T08:56:20;100139.89;;;4.10;81.31
28701;BME280;15877;52.344;16.790;2023-02-03T08:58:54;100133.83;;;4.21;80.79
28701;BME280;15877;52.344;16.790;2023-02-03T09:01:27;100131.77;;;4.28;80.58
28701;BME280;15877;52.344;16.790;2023-02-03T09:04:00;100130.40;;;4.47;79.78
28701;BME280;15877;52.344;16.790;2023-02-03T09:06:34;100135.21;;;4.54;79.18
28701;BME280;15877;52.344;16.790;2023-02-03T09:09:07;100141.13;;;4.43;79.38
28701;BME280;15877;52.344;16.790;2023-02-03T09:11:41;100131.56;;;4.33;79.96
28701;BME280;15877;52.344;16.790;2023-02-03T09:14:13;100116.13;;;4.16;80.85
28701;BME280;15877;52.344;16.790;2023-02-03T09:16:46;100096.68;;;4.09;81.29
28701;BME280;15877;52.344;16.790;2023-02-03T09:19:19;100090.26;;;4.17;81.08
28701;BME280;15877;52.344;16.790;2023-02-03T09:21:51;100057.79;;;4.15;80.92
28701;BME280;15877;52.344;16.790;2023-02-03T09:24:24;100041.40;;;4.12;80.97
28701;BME280;15877;52.344;16.790;2023-02-03T09:26:57;100047.94;;;4.18;81.03
28701;BME280;15877;52.344;16.790;2023-02-03T09:29:31;100036.43;;;4.08;81.71
28701;BME280;15877;52.344;16.790;2023-02-03T09:32:04;100027.77;;;4.03;82.16
28701;BME280;15877;52.344;16.790;2023-02-03T09:34:40;100018.67;;;3.90;82.82
28701;BME280;15877;52.344;16.790;2023-02-03T09:37:13;100007.66;;;3.88;83.52
28701;BME280;15877;52.344;16.790;2023-02-03T09:39:45;99998.89;;;3.94;83.57
28701;BME280;15877;52.344;16.790;2023-02-03T09:42:29;99985.60;;;3.97;83.54
28701;BME280;15877;52.344;16.790;2023-02-03T09:45:16;99974.81;;;4.05;83.34
28701;BME280;15877;52.344;16.790;2023-02-03T09:47:52;99960.47;;;4.25;82.55
28701;BME280;15877;52.344;16.790;2023-02-03T09:50:25;99957.41;;;4.13;82.99
28701;BME280;15877;52.344;16.790;2023-02-03T09:53:06;99943.42;;;4.16;83.03
28701;BME280;15877;52.344;16.790;2023-02-03T09:55:42;99922.08;;;4.05;83.50
28701;BME280;15877;52.344;16.790;2023-02-03T09:58:16;99917.13;;;4.09;83.82
28701;BME280;15877;52.344;16.790;2023-02-03T10:00:53;99908.23;;;4.29;83.08
28701;BME280;15877;52.344;16.790;2023-02-03T10:03:31;99898.55;;;4.26;82.90
28701;BME280;15877;52.344;16.790;2023-02-03T10:06:23;99877.81;;;4.14;83.41
28701;BME280;15877;52.344;16.790;2023-02-03T10:09:29;99863.60;;;4.04;83.95
28701;BME280;15877;52.344;16.790;2023-02-03T10:12:27;99852.69;;;4.17;84.01
28701;BME280;15877;52.344;16.790;2023-02-03T10:15:18;99836.66;;;4.31;83.65
28701;BME280;15877;52.344;16.790;2023-02-03T10:17:53;99820.41;;;4.35;83.63
28701;BME280;15877;52.344;16.790;2023-02-03T10:20:33;99806.98;;;4.12;84.64
28701;BME280;15877;52.344;16.790;2023-02-03T10:23:10;99799.80;;;4.43;83.95
28701;BME280;15877;52.344;16.790;2023-02-03T10:25:47;99789.98;;;4.48;83.51
28701;BME280;15877;52.344;16.790;2023-02-03T10:28:31;99776.59;;;4.40;83.85
28701;BME280;15877;52.344;16.790;2023-02-03T10:31:16;99765.26;;;4.53;83.68
28701;BME280;15877;52.344;16.790;2023-02-03T10:33:58;99751.95;;;4.68;83.13
28701;BME280;15877;52.344;16.790;2023-02-03T10:36:38;99745.36;;;4.68;83.05
28701;BME280;15877;52.344;16.790;2023-02-03T10:39:21;99740.89;;;4.71;83.05
28701;BME280;15877;52.344;16.790;2023-02-03T10:41:55;99734.58;;;4.70;83.23
28701;BME280;15877;52.344;16.790;2023-02-03T10:44:34;99706.13;;;4.61;83.36
28701;BME280;15877;52.344;16.790;2023-02-03T10:47:19;99713.80;;;4.62;83.75
28701;BME280;15877;52.344;16.790;2023-02-03T10:49:55;99709.25;;;4.74;83.73
28701;BME280;15877;52.344;16.790;2023-02-03T10:52:30;99692.13;;;4.72;83.93
28701;BME280;15877;52.344;16.790;2023-02-03T10:55:27;99673.32;;;4.69;83.91
28701;BME280;15877;52.344;16.790;2023-02-03T10:58:09;99676.13;;;4.73;84.53
28701;BME280;15877;52.344;16.790;2023-02-03T11:00:45;99666.86;;;4.78;84.71
28701;BME280;15877;52.344;16.790;2023-02-03T11:03:24;99660.38;;;4.87;84.70
28701;BME280;15877;52.344;16.790;2023-02-03T11:06:09;99653.59;;;4.87;85.06
28701;BME280;15877;52.344;16.790;2023-02-03T11:08:43;99649.80;;;4.95;85.00
28701;BME280;15877;52.344;16.790;2023-02-03T11:11:22;99642.16;;;5.06;84.70
28701;BME280;15877;52.344;16.790;2023-02-03T11:14:10;99634.55;;;4.96;85.38
28701;BME280;15877;52.344;16.790;2023-02-03T11:16:43;99623.26;;;5.05;85.58
28701;BME280;15877;52.344;16.790;2023-02-03T11:19:19;99618.15;;;5.13;85.40
28701;BME280;15877;52.344;16.790;2023-02-03T11:21:53;99601.64;;;5.02;85.66
28701;BME280;15877;52.344;16.790;2023-02-03T11:24:29;99599.73;;;5.02;86.34
28701;BME280;15877;52.344;16.790;2023-02-03T11:27:05;99588.30;;;5.06;86.26
28701;BME280;15877;52.344;16.790;2023-02-03T11:29:41;99577.17;;;4.90;87.40
28701;BME280;15877;52.344;16.790;2023-02-03T11:32:20;99573.89;;;5.03;88.01
28701;BME280;15877;52.344;16.790;2023-02-03T11:34:57;99569.81;;;5.12;88.66
28701;BME280;15877;52.344;16.790;2023-02-03T11:37:32;99567.42;;;5.21;88.84
28701;BME280;15877;52.344;16.790;2023-02-03T11:40:27;99567.27;;;5.16;89.45
28701;BME280;15877;52.344;16.790;2023-02-03T11:43:03;99562.23;;;5.27;89.75
28701;BME280;15877;52.344;16.790;2023-02-03T11:45:39;99558.54;;;5.24;90.35
28701;BME280;15877;52.344;16.790;2023-02-03T11:48:25;99548.42;;;5.30;90.31
28701;BME280;15877;52.344;16.790;2023-02-03T11:51:07;99538.20;;;5.42;89.92
28701;BME280;15877;52.344;16.790;2023-02-03T11:53:57;99531.75;;;5.50;89.68
28701;BME280;15877;52.344;16.790;2023-02-03T11:56:46;99530.15;;;5.44;90.36
28701;BME280;15877;52.344;16.790;2023-02-03T11:59:45;99529.07;;;5.45;91.12
28701;BME280;15877;52.344;16.790;2023-02-03T12:05:35;99536.07;;;5.67;92.80
28701;BME280;15877;52.344;16.790;2023-02-03T12:08:22;99530.07;;;5.75;94.78
28701;BME280;15877;52.344;16.790;2023-02-03T12:11:07;99527.64;;;5.90;96.76
28701;BME280;15877;52.344;16.790;2023-02-03T12:13:57;99529.82;;;5.95;98.09
28701;BME280;15877;52.344;16.790;2023-02-03T12:16:47;99536.52;;;6.10;98.36
28701;BME280;15877;52.344;16.790;2023-02-03T12:19:34;99527.33;;;6.30;97.61
28701;BME280;15877;52.344;16.790;2023-02-03T12:22:17;99526.31;;;6.35;97.64
28701;BME280;15877;52.344;16.790;2023-02-03T12:25:01;99516.16;;;6.55;96.86
28701;BME280;15877;52.344;16.790;2023-02-03T12:27:44;99509.91;;;6.44;97.31
28701;BME280;15877;52.344;16.790;2023-02-03T12:30:26;99520.95;;;6.61;97.46
28701;BME280;15877;52.344;16.790;2023-02-03T12:33:03;99516.08;;;6.86;96.31
28701;BME280;15877;52.344;16.790;2023-02-03T12:35:45;99507.51;;;6.87;95.72
28701;BME280;15877;52.344;16.790;2023-02-03T12:38:28;99502.44;;;6.93;95.49
28701;BME280;15877;52.344;16.790;2023-02-03T12:41:07;99507.66;;;7.02;95.20
28701;BME280;15877;52.344;16.790;2023-02-03T12:43:44;99497.41;;;7.05;94.83
28701;BME280;15877;52.344;16.790;2023-02-03T12:46:22;99494.83;;;7.17;94.67
28701;BME280;15877;52.344;16.790;2023-02-03T12:49:02;99503.27;;;7.22;94.26
28701;BME280;15877;52.344;16.790;2023-02-03T12:51:39;99499.36;;;7.27;94.17
28701;BME280;15877;52.344;16.790;2023-02-03T12:54:24;99496.66;;;7.26;93.69
28701;BME280;15877;52.344;16.790;2023-02-03T12:57:08;99497.12;;;7.37;93.47
28701;BME280;15877;52.344;16.790;2023-02-03T12:59:56;99481.10;;;7.30;93.12
28701;BME280;15877;52.344;16.790;2023-02-03T13:02:34;99502.45;;;7.44;92.93
28701;BME280;15877;52.344;16.790;2023-02-03T13:05:18;99495.86;;;7.54;92.86
28701;BME280;15877;52.344;16.790;2023-02-03T13:07:54;99503.03;;;7.58;92.93
28701;BME280;15877;52.344;16.790;2023-02-03T13:10:34;99514.92;;;7.61;93.02
28701;BME280;15877;52.344;16.790;2023-02-03T13:13:12;99544.98;;;7.55;92.70
28701;BME280;15877;52.344;16.790;2023-02-03T13:15:48;99567.04;;;7.29;89.26
28701;BME280;15877;52.344;16.790;2023-02-03T13:18:26;99578.15;;;7.21;87.69
28701;BME280;15877;52.344;16.790;2023-02-03T13:21:01;99571.73;;;6.98;86.71
28701;BME280;15877;52.344;16.790;2023-02-03T13:23:33;99555.51;;;6.92;86.99
28701;BME280;15877;52.344;16.790;2023-02-03T13:26:16;99560.48;;;6.86;87.12
28701;BME280;15877;52.344;16.790;2023-02-03T13:29:16;99546.43;;;6.71;87.29
28701;BME280;15877;52.344;16.790;2023-02-03T13:32:04;99539.29;;;6.73;87.31
28701;BME280;15877;52.344;16.790;2023-02-03T13:34:53;99551.77;;;6.70;87.26
28701;BME280;15877;52.344;16.790;2023-02-03T13:37:46;99540.60;;;6.58;87.29
28701;BME280;15877;52.344;16.790;2023-02-03T13:40:33;99571.68;;;6.69;87.64
28701;BME280;15877;52.344;16.790;2023-02-03T13:43:13;99574.26;;;6.74;88.03
28701;BME280;15877;52.344;16.790;2023-02-03T13:46:16;99584.73;;;6.76;88.51
28701;BME280;15877;52.344;16.790;2023-02-03T13:48:51;99604.63;;;6.75;88.87
28701;BME280;15877;52.344;16.790;2023-02-03T13:51:27;99624.39;;;6.76;89.38